Xingren, China
Current Conditions -  °F | °C
As of 8:00 PM on Wednesday 28 Jan 2015 (Local Time) from ZUGY Reporting Station
Light Rain Light Rain  
Wind Chill: 29°   Ceiling: 1500
Heat Index: 36°   Visibility: 5mi
Dew Point: 34°   Wind: 9mph
Humidity: 93%   Direction: 40°NE
Pressure: 29.91"   Gusts: NA
Location:  25.43°N, 105.18°E
Report Text: ZUGY 281200Z 04004MPS 010V070 8000 -RA FEW004 BKN015OVC03302/01 Q1013 BECMG TL1300 FEW004 BKN012 OVC030
Loading
Personal Weather Stations






























Interactive Weather Map New forecast layout! Learn more

10-Day Weather Forecast

Advertisements
Track Severe Weather on mobile